Time;durP1;ratioP1;P1;durP2;ratioP2;P2;SDS_P1;SDS_P2;PMS_P1;PMS_P2;Temp;Humidity;BMP_temperature;BMP_pressure;BME280_temperature;BME280_humidity;BME280_pressure;Samples;Min_cycle;Max_cycle;Signal;HPM_P1;HPM_P2
2022/06/20 00:01:25;;;;;;;7.95;4.82;;;;;;;;;;5029612;28;22285;-86
2022/06/20 00:03:52;;;;;;;11.07;4.80;;;;;;;13.92;100.00;68320.53;5033052;28;20044;-86
2022/06/20 00:06:21;;;;;;;9.55;4.72;;;;;;;13.87;100.00;68314.84;5029289;28;20037;-87
2022/06/20 00:08:51;;;;;;;9.23;4.72;;;;;;;13.90;100.00;68320.38;5029810;28;20033;-88
2022/06/20 00:11:20;;;;;;;10.73;4.38;;;;;;;13.88;100.00;68315.41;5029532;28;20125;-86
2022/06/20 00:13:45;;;;;;;;;;;;;;;;;;5031524;28;20046;-87
2022/06/20 00:16:16;;;;;;;9.02;4.55;;;;;;;13.73;100.00;68298.94;5012843;28;19944;-86
2022/06/20 00:18:43;;;;;;;8.40;4.65;;;;;;;13.56;100.00;68279.59;5029732;28;20731;-87
2022/06/20 00:21:14;;;;;;;9.40;4.57;;;;;;;13.66;100.00;68296.88;5028870;28;20468;-86
2022/06/20 00:23:40;;;;;;;9.18;4.38;;;;;;;13.66;100.00;68290.94;5012920;28;20041;-87
2022/06/20 00:26:05;;;;;;;10.77;5.20;;;;;;;;;;5029055;28;20052;-86
2022/06/20 00:28:31;;;;;;;10.68;4.35;;;;;;;13.71;100.00;68297.22;5013148;28;20374;-87
2022/06/20 00:30:56;;;;;;;9.73;4.60;;;;;;;;;;5029295;28;20044;-87
2022/06/20 00:33:22;;;;;;;10.25;4.57;;;;;;;;;;5028905;28;20136;-86
2022/06/20 00:35:47;;;;;;;8.82;4.55;;;;;;;13.67;100.00;68292.09;5011898;28;20041;-87
2022/06/20 00:38:18;;;;;;;7.93;4.55;;;;;;;13.61;100.00;68285.25;5028046;28;20754;-86
2022/06/20 00:40:53;;;;;;;9.65;4.97;;;;;;;13.62;99.70;68286.97;5031988;28;20114;-86
2022/06/20 00:43:42;;;;;;;8.82;4.28;;;;;;;13.73;100.00;68301.59;5029865;28;20049;-87
2022/06/20 00:46:09;;;;;;;;;;;;;;;13.79;99.52;68305.19;5005028;28;20497;-88
2022/06/20 00:48:41;;;;;;;9.23;4.25;;;;;;;13.59;100.00;68278.22;5030039;28;20479;-86
2022/06/20 00:51:21;;;;;;;10.07;4.75;;;;;;;13.41;100.00;68263.09;5028107;28;20092;-86
2022/06/20 00:53:50;;;;;;;10.40;4.97;;;;;;;;;;5028403;28;20382;-87
2022/06/20 00:56:21;;;;;;;11.27;5.20;;;;;;;13.36;100.00;68257.41;5027641;28;20102;-86
2022/06/20 00:58:55;;;;;;;10.30;5.15;;;;;;;13.54;100.00;68278.44;5028543;28;20170;-87
2022/06/20 01:01:31;;;;;;;11.38;5.10;;;;;;;13.58;100.00;68281.84;5026041;28;20099;-88
2022/06/20 01:04:03;;;;;;;10.52;5.25;;;;;;;13.57;100.00;68281.28;5028808;28;20048;-87
2022/06/20 01:06:37;;;;;;;8.80;4.95;;;;;;;13.53;100.00;68279.41;5025793;28;20041;-86
2022/06/20 01:09:09;;;;;;;13.18;5.18;;;;;;;13.55;100.00;68281.69;5031878;28;20045;-86
2022/06/20 01:11:40;;;;;;;11.13;5.40;;;;;;;;;;5023937;28;20725;-86
2022/06/20 01:14:26;;;;;;;13.23;5.55;;;;;;;13.36;100.00;68257.41;5014445;28;20045;-86
2022/06/20 01:16:54;;;;;;;11.27;5.55;;;;;;;13.45;100.00;68268.19;5027962;28;20041;-86
2022/06/20 01:19:39;;;;;;;15.20;5.82;;;;;;;13.37;100.00;68253.19;5029180;28;20041;-86
2022/06/20 01:22:23;;;;;;;14.10;5.70;;;;;;;13.17;100.00;68236.91;5009739;28;20056;-86
2022/06/20 01:25:03;;;;;;;9.52;5.45;;;;;;;13.13;100.00;68232.34;4990802;28;20041;-87
2022/06/20 01:27:28;;;;;;;12.38;6.18;;;;;;;13.14;100.00;68233.50;4991969;28;20445;-88
2022/06/20 01:29:53;;;;;;;14.05;5.85;;;;;;;13.21;100.00;68241.47;4988416;28;20045;-87
2022/06/20 01:32:19;;;;;;;9.05;4.88;;;;;;;;;;4988951;28;20192;-87
2022/06/20 01:34:44;;;;;;;12.13;4.68;;;;;;;13.23;100.00;68237.81;4996665;28;20069;-87
2022/06/20 01:37:29;;;;;;;12.15;5.00;;;;;;;13.23;100.00;68243.16;5007229;28;20409;-87
2022/06/20 01:40:05;;;;;;;12.00;4.65;;;;;;;13.25;100.00;68248.69;5010264;28;20121;-87
2022/06/20 01:42:32;;;;;;;10.02;4.43;;;;;;;13.34;100.00;68255.13;5009266;28;20034;-87
2022/06/20 01:45:04;;;;;;;10.65;4.32;;;;;;;13.36;100.00;68257.97;4993340;28;20066;-88
2022/06/20 01:47:30;;;;;;;7.97;3.75;;;;;;;13.23;100.00;68243.16;5010535;28;20041;-87
2022/06/20 01:50:02;;;;;;;10.90;4.30;;;;;;;13.29;100.00;68253.25;4993575;28;20099;-91
2022/06/20 01:52:30;;;;;;;10.27;4.22;;;;;;;13.31;100.00;68252.28;4992428;28;20050;-87
2022/06/20 01:55:07;;;;;;;10.17;4.93;;;;;;;13.32;100.00;68253.41;5009407;28;20038;-87
2022/06/20 01:57:37;;;;;;;11.52;4.90;;;;;;;13.35;100.00;68256.25;5027011;28;20418;-90
2022/06/20 02:00:13;;;;;;;12.60;4.85;;;;;;;13.37;100.00;68258.53;5028246;28;20041;-88
2022/06/20 02:02:42;;;;;;;12.95;4.85;;;;;;;13.37;100.00;68263.88;5029232;28;20660;-87
2022/06/20 02:05:12;;;;;;;12.07;4.75;;;;;;;13.33;100.00;68254.56;5029542;28;20033;-88
2022/06/20 02:07:40;;;;;;;8.35;4.20;;;;;;;13.35;100.00;68256.25;5028480;28;20096;-87
2022/06/20 02:10:07;;;;;;;9.10;4.50;;;;;;;13.36;100.00;68257.97;5009645;28;20048;-87
2022/06/20 02:12:36;;;;;;;9.50;4.95;;;;;;;13.39;100.00;68264.06;5009473;28;20048;-90
2022/06/20 02:15:04;;;;;;;9.38;5.13;;;;;;;13.37;100.00;68258.53;5010397;28;20045;-87
2022/06/20 02:17:34;;;;;;;11.00;4.70;;;;;;;13.30;100.00;68253.81;5024634;28;20045;-89
2022/06/20 02:20:02;;;;;;;10.13;4.80;;;;;;;;;;5026066;28;20412;-87
2022/06/20 02:22:28;;;;;;;11.48;5.30;;;;;;;13.46;100.00;68268.75;5026439;28;20068;-88
2022/06/20 02:24:59;;;;;;;13.77;5.38;;;;;;;13.45;100.00;68267.63;5010242;28;20128;-89
2022/06/20 02:27:30;;;;;;;11.13;4.95;;;;;;;13.45;100.00;68267.63;5027347;28;20497;-88
2022/06/20 02:29:57;;;;;;;10.30;4.88;;;;;;;13.40;100.00;68264.63;5028353;28;20176;-88
2022/06/20 02:32:29;;;;;;;13.63;5.22;;;;;;;13.42;100.00;68264.22;5009736;28;20520;-87
2022/06/20 02:34:54;;;;;;;9.63;4.47;;;;;;;13.42;100.00;68264.22;5028754;28;20409;-87
2022/06/20 02:37:24;;;;;;;12.18;5.53;;;;;;;13.32;100.00;68259.34;5010772;28;20041;-89
2022/06/20 02:40:02;;;;;;;9.85;5.28;;;;;;;13.31;100.00;68258.19;5029122;28;20037;-88
2022/06/20 02:42:31;;;;;;;11.85;5.53;;;;;;;;;;5010373;28;20044;-87
2022/06/20 02:44:57;;;;;;;11.50;5.47;;;;;;;13.20;100.00;68245.66;5027931;28;20103;-89
2022/06/20 02:47:25;;;;;;;12.95;5.97;;;;;;;13.14;100.00;68232.91;5009734;28;20277;-88
2022/06/20 02:49:55;;;;;;;15.43;6.75;;;;;;;13.07;100.00;68226.09;5009451;28;20401;-87
2022/06/20 02:52:30;;;;;;;13.18;6.18;;;;;;;13.18;100.00;68238.06;5008740;28;20045;-90
2022/06/20 02:54:56;;;;;;;11.70;6.18;;;;;;;13.13;100.00;68235.03;5010419;28;20409;-88
2022/06/20 02:57:35;;;;;;;15.43;6.68;;;;;;;13.19;100.00;68241.28;5009514;28;20452;-87
2022/06/20 03:00:03;;;;;;;12.48;6.60;;;;;;;13.16;100.00;68229.84;5025186;28;20644;-89
2022/06/20 03:02:35;;;;;;;13.73;8.38;;;;;;;13.00;100.00;68217.56;5006430;28;20034;-88
2022/06/20 03:05:02;;;;;;;15.10;7.63;;;;;;;12.98;100.00;68221.22;5008092;28;20400;-88
2022/06/20 03:07:32;;;;;;;16.77;8.05;;;;;;;12.87;100.00;68206.59;5008059;28;20511;-88
2022/06/20 03:10:27;;;;;;;13.98;7.95;;;;;;;12.81;100.00;68199.78;5009200;28;20037;-88
2022/06/20 03:12:54;;;;;;;15.18;8.05;;;;;;;12.84;100.00;68200.53;5003861;28;20038;-87
2022/06/20 03:15:20;;;;;;;14.95;7.65;;;;;;;12.92;100.00;68213.81;5002460;28;20183;-87
2022/06/20 03:17:47;;;;;;;9.15;6.97;;;;;;;12.80;100.00;68200.75;5029277;28;20046;-87
2022/06/20 03:20:15;;;;;;;17.02;7.45;;;;;;;12.78;100.00;68196.38;5009943;28;20061;-87
2022/06/20 03:22:48;;;;;;;12.05;6.78;;;;;;;12.78;100.00;68193.69;5019040;28;20754;-87
2022/06/20 03:25:15;;;;;;;14.93;7.55;;;;;;;12.70;100.00;68187.28;5025610;28;20034;-88
2022/06/20 03:27:42;;;;;;;15.30;7.40;;;;;;;12.69;100.00;68185.56;5009574;28;20040;-88
2022/06/20 03:30:29;;;;;;;12.30;7.82;;;;;;;12.71;100.00;68188.41;5025514;28;20118;-87
2022/06/20 03:32:56;;;;;;;14.02;7.20;;;;;;;12.70;100.00;68184.59;5022511;28;20049;-87
2022/06/20 03:35:21;;;;;;;13.70;7.28;;;;;;;12.70;100.00;68187.28;4996024;28;20096;-87
2022/06/20 03:37:47;;;;;;;12.43;6.72;;;;;;;12.71;100.00;68185.72;5018843;28;20045;-87
2022/06/20 03:40:14;;;;;;;14.38;6.53;;;;;;;12.73;100.00;68195.47;4987798;28;20030;-88
2022/06/20 03:42:39;;;;;;;11.27;6.00;;;;;;;;;;4987475;28;20053;-87
2022/06/20 03:45:06;;;;;;;11.65;6.43;;;;;;;;;;5024267;28;20076;-89
2022/06/20 03:47:41;;;;;;;16.40;5.95;;;;;;;12.78;100.00;68196.38;5012229;28;20628;-88
2022/06/20 03:50:15;;;;;;;13.80;7.20;;;;;;;12.70;100.00;68184.03;5023794;28;20042;-89
2022/06/20 03:52:50;;;;;;;13.85;6.13;;;;;;;12.67;100.00;68183.88;5029571;28;20402;-86
2022/06/20 03:55:27;;;;;;;15.23;6.57;;;;;;;12.74;100.00;68191.81;4988665;28;20038;-88
2022/06/20 03:57:56;;;;;;;12.05;6.18;;;;;;;;;;5029593;28;20050;-88
2022/06/20 04:00:47;;;;;;;15.30;6.80;;;;;;;12.53;100.00;68165.28;5028656;28;20177;-87
2022/06/20 04:03:20;;;;;;;10.88;6.10;;;;;;;;;;5026663;28;20045;-88
2022/06/20 04:05:52;;;;;;;11.07;6.40;;;;;;;12.50;100.00;68161.88;5026816;28;20546;-88
2022/06/20 04:10:57;;;;;;;14.23;6.32;;;;;;;12.57;100.00;68169.81;5005011;28;20172;-88
2022/06/20 04:11:16;;;;;;;10.27;5.20;;;;;;;12.70;100.00;68184.03;5018294;28;20045;-88
2022/06/20 04:14:02;;;;;;;13.73;5.55;;;;;;;12.76;100.00;68191.41;5027628;28;20051;-87
2022/06/20 04:16:45;;;;;;;9.15;4.70;;;;;;;12.68;100.00;68182.31;5004259;28;20089;-87
2022/06/20 04:19:26;;;;;;;11.98;4.95;;;;;;;12.69;100.00;68183.47;5028058;28;20037;-88
2022/06/20 04:22:09;;;;;;;14.07;4.30;;;;;;;;;;5025817;28;20042;-87
2022/06/20 04:24:47;;;;;;;10.93;4.65;;;;;;;12.70;100.00;68187.28;5009713;28;20099;-87
2022/06/20 04:27:26;;;;;;;11.32;5.20;;;;;;;12.80;100.00;68190.63;5029792;28;20038;-87
2022/06/20 04:30:17;;;;;;;10.48;4.35;;;;;;;12.81;100.00;68197.09;5029709;28;20034;-87
2022/06/20 04:32:51;;;;;;;10.15;4.75;;;;;;;12.70;100.00;68184.03;4995322;28;20544;-87
2022/06/20 04:35:20;;;;;;;9.73;4.65;;;;;;;12.63;100.00;68177.22;5024092;28;20124;-83
2022/06/20 04:37:56;;;;;;;12.45;5.03;;;;;;;12.64;100.00;68172.44;5006546;28;20104;-88
2022/06/20 04:40:36;;;;;;;10.75;4.47;;;;;;;12.76;100.00;68191.41;5024775;28;20091;-89
2022/06/20 04:43:09;;;;;;;9.07;4.43;;;;;;;12.79;100.00;68194.25;5009227;28;20037;-87
2022/06/20 04:45:57;;;;;;;11.25;5.00;;;;;;;12.72;100.00;68192.22;5025218;28;20038;-86
2022/06/20 04:48:24;;;;;;;9.52;4.15;;;;;;;12.73;100.00;68188.00;5026567;28;20732;-88
2022/06/20 04:50:52;;;;;;;12.07;4.45;;;;;;;12.89;100.00;68208.31;5009448;28;20077;-88
2022/06/20 04:53:29;;;;;;;9.23;4.30;;;;;;;12.93;100.00;68212.28;5010026;28;20044;-88
2022/06/20 04:55:58;;;;;;;13.98;4.60;;;;;;;13.02;100.00;68214.50;5010904;28;20284;-90
2022/06/20 04:58:32;;;;;;;12.23;4.03;;;;;;;13.10;99.72;68231.63;5026671;28;20049;-88
2022/06/20 05:00:57;;;;;;;10.10;3.97;;;;;;;;;;5026749;28;20072;-88
2022/06/20 05:03:27;;;;;;;8.43;4.28;;;;;;;13.10;99.97;68228.94;5025802;28;20041;-88
2022/06/20 05:05:55;;;;;;;8.40;4.25;;;;;;;13.16;100.00;68241.13;5026556;28;20049;-89
2022/06/20 05:08:31;;;;;;;14.60;4.90;;;;;;;13.18;100.00;68238.06;5009529;28;20044;-89
2022/06/20 05:11:04;;;;;;;11.00;4.75;;;;;;;13.22;99.32;68242.59;5026946;28;20041;-88
2022/06/20 05:13:40;;;;;;;11.30;4.38;;;;;;;13.23;99.07;68243.72;5023790;28;20045;-88
2022/06/20 05:16:14;;;;;;;11.80;4.55;;;;;;;13.20;99.78;68245.66;5027054;28;20052;-88
2022/06/20 05:18:43;;;;;;;10.15;4.50;;;;;;;13.25;99.02;68246.03;5026395;28;20041;-89
2022/06/20 05:21:22;;;;;;;12.60;4.82;;;;;;;13.24;99.00;68244.31;5016964;28;20049;-88
2022/06/20 05:23:56;;;;;;;14.02;5.30;;;;;;;13.30;99.33;68251.72;4991903;28;20096;-87
2022/06/20 05:26:27;;;;;;;10.20;3.95;;;;;;;13.39;99.39;68260.81;5000012;28;20043;-88
2022/06/20 05:28:53;;;;;;;8.02;4.15;;;;;;;;;;5025009;28;20404;-88
2022/06/20 05:31:42;;;;;;;10.15;4.10;;;;;;;13.45;97.59;68267.63;5024185;28;20044;-87
2022/06/20 05:34:17;;;;;;;10.25;3.35;;;;;;;13.46;96.47;68274.13;5025189;28;20112;-90
2022/06/20 05:37:09;;;;;;;11.88;3.38;;;;;;;13.59;96.28;68286.25;4971117;28;20048;-89
2022/06/20 05:39:45;;;;;;;8.68;3.00;;;;;;;13.69;94.92;68297.03;4997986;28;20041;-88
2022/06/20 05:42:14;;;;;;;10.15;3.10;;;;;;;13.78;94.49;68304.59;5023090;28;20467;-89
2022/06/20 05:44:40;;;;;;;8.35;3.05;;;;;;;13.92;93.56;68319.97;5026756;28;20042;-88
2022/06/20 05:47:31;;;;;;;8.45;3.42;;;;;;;14.07;93.69;68337.03;5011630;28;20051;-88
2022/06/20 05:50:13;;;;;;;6.88;2.83;;;;;;;14.05;91.24;68334.19;4997820;28;20112;-89
2022/06/20 05:52:40;;;;;;;10.38;3.10;;;;;;;14.05;91.01;68334.75;5010805;28;20437;-88
2022/06/20 05:55:09;;;;;;;6.70;2.85;;;;;;;14.10;90.38;68335.09;5027899;28;20037;-87
2022/06/20 05:57:38;;;;;;;6.80;2.30;;;;;;;14.17;88.98;68348.41;5010332;28;20421;-90
2022/06/20 06:00:15;;;;;;;8.95;2.70;;;;;;;14.31;88.68;68363.22;5027382;28;20099;-88
2022/06/20 06:02:45;;;;;;;6.13;2.03;;;;;;;14.35;88.13;68368.34;5010024;28;20487;-89
2022/06/20 06:05:28;;;;;;;4.82;2.20;;;;;;;14.41;86.25;68375.19;5026963;28;20033;-88
2022/06/20 06:08:08;;;;;;;6.80;2.85;;;;;;;14.42;86.15;68376.31;4978035;28;20099;-88
2022/06/20 06:10:37;;;;;;;5.78;2.47;;;;;;;;;;5010174;28;20053;-88
2022/06/20 06:13:23;;;;;;;7.43;2.60;;;;;;;14.60;84.15;68396.25;5010808;28;20042;-88
2022/06/20 06:19:07;;;;;;;6.95;1.95;;;;;;;14.45;83.55;68379.16;5010762;28;20455;-89
2022/06/20 06:21:34;;;;;;;7.15;2.35;;;;;;;14.43;83.46;68379.56;5019149;28;20128;-87
2022/06/20 06:24:01;;;;;;;4.90;1.70;;;;;;;14.61;83.38;68397.38;5026322;28;20139;-90
2022/06/20 06:26:27;;;;;;;5.28;1.92;;;;;;;14.76;83.84;68413.31;5024721;28;20557;-87
2022/06/20 06:28:53;;;;;;;4.93;1.77;;;;;;;14.80;83.19;68417.88;5026514;28;20124;-88
2022/06/20 06:31:22;;;;;;;6.90;2.58;;;;;;;;;;5026309;28;20041;-88
2022/06/20 06:34:17;;;;;;;7.25;2.13;;;;;;;14.71;82.93;68408.22;5010539;28;20497;-88
2022/06/20 06:36:44;;;;;;;5.45;1.75;;;;;;;;;;5024052;28;20124;-87
2022/06/20 06:39:15;;;;;;;7.38;2.03;;;;;;;14.83;81.95;68421.31;5024909;28;20042;-87
2022/06/20 06:41:44;;;;;;;5.38;1.85;;;;;;;;;;5026891;28;20075;-86
2022/06/20 06:44:24;;;;;;;5.40;2.03;;;;;;;14.80;80.69;68417.88;5028585;28;20041;-86
2022/06/20 06:46:52;;;;;;;5.70;2.10;;;;;;;;;;4994316;28;20696;-86
2022/06/20 06:49:39;;;;;;;5.03;2.08;;;;;;;14.97;79.46;68436.69;5011624;28;20075;-87
2022/06/20 06:52:08;;;;;;;5.45;1.70;;;;;;;;;;5011927;28;20068;-90
2022/06/20 06:54:53;;;;;;;6.70;1.70;;;;;;;;;;5029107;28;20116;-87
2022/06/20 06:57:21;;;;;;;5.45;1.88;;;;;;;;;;5008859;28;20056;-87
2022/06/20 06:59:51;;;;;;;6.22;1.80;;;;;;;15.41;77.16;68486.22;5011212;28;20492;-87
2022/06/20 07:02:22;;;;;;;5.22;1.65;;;;;;;15.58;76.43;68499.66;5009644;28;20038;-86
2022/06/20 07:04:55;;;;;;;5.18;2.03;;;;;;;;;;5029485;28;20100;-87
2022/06/20 07:07:32;;;;;;;6.65;2.53;;;;;;;15.61;77.14;68507.88;5027092;28;20046;-86
2022/06/20 07:10:00;;;;;;;7.22;2.55;;;;;;;15.65;76.72;68513.00;5028452;28;20444;-86
2022/06/20 07:12:44;;;;;;;5.63;2.17;;;;;;;15.51;74.73;68497.06;5026557;28;20030;-87
2022/06/20 07:15:19;;;;;;;5.97;1.85;;;;;;;15.26;76.07;68469.69;5012190;28;20493;-88
2022/06/20 07:17:51;;;;;;;8.68;2.22;;;;;;;;;;4995808;28;20095;-87
2022/06/20 07:20:20;;;;;;;4.65;2.13;;;;;;;15.31;77.94;68474.84;5014467;28;20497;-87
2022/06/20 07:22:47;;;;;;;7.60;2.53;;;;;;;;;;5015414;28;20432;-90
2022/06/20 07:25:34;;;;;;;6.93;2.40;;;;;;;15.45;76.52;68490.78;5015679;28;20045;-86
2022/06/20 07:28:09;;;;;;;5.53;2.40;;;;;;;15.56;76.57;68506.00;5014073;28;20034;-87
2022/06/20 07:30:48;;;;;;;6.82;1.95;;;;;;;15.58;75.04;68505.03;5014439;28;20033;-87
2022/06/20 07:33:24;;;;;;;8.57;2.50;;;;;;;15.61;74.37;68507.88;5030573;28;20424;-86
2022/06/20 07:35:55;;;;;;;9.13;2.22;;;;;;;15.69;74.15;68512.22;5030848;28;20045;-87
2022/06/20 07:38:43;;;;;;;5.50;2.10;;;;;;;15.93;73.94;68538.97;5032506;28;20048;-87
2022/06/20 07:41:24;;;;;;;5.25;2.00;;;;;;;16.16;72.10;68569.44;5032099;28;20091;-87
2022/06/20 07:43:56;;;;;;;6.38;1.88;;;;;;;16.20;70.61;68569.19;5008338;28;20033;-87
2022/06/20 07:46:31;;;;;;;6.70;2.25;;;;;;;16.27;71.29;68581.41;5030726;28;20033;-86
2022/06/20 07:49:01;;;;;;;4.50;2.10;;;;;;;16.33;70.86;68590.94;5031807;28;20034;-87
2022/06/20 07:51:31;;;;;;;6.90;1.90;;;;;;;;;;5022828;28;20493;-87
2022/06/20 07:54:02;;;;;;;5.63;2.50;;;;;;;;;;4997638;28;20124;-87
2022/06/20 07:56:37;;;;;;;8.23;2.20;;;;;;;16.12;71.05;68564.88;5012429;28;20500;-87
2022/06/20 07:59:12;;;;;;;4.38;2.30;;;;;;;16.14;71.06;68567.16;4991779;28;20045;-87
2022/06/20 08:02:15;;;;;;;6.03;2.13;;;;;;;16.30;70.79;68584.81;4972851;28;20038;-88
2022/06/20 08:04:44;;;;;;;5.63;1.90;;;;;;;16.31;70.32;68586.53;4973944;28;20030;-87
2022/06/20 08:07:20;;;;;;;8.20;2.20;;;;;;;16.39;69.04;68595.66;4990977;28;20041;-87
2022/06/20 08:09:58;;;;;;;6.93;2.13;;;;;;;16.32;68.92;68587.69;4973715;28;20090;-87
2022/06/20 08:12:36;;;;;;;5.85;2.10;;;;;;;;;;4990093;28;20046;-87
2022/06/20 08:15:03;;;;;;;4.68;2.03;;;;;;;;;;4990473;28;20050;-87
2022/06/20 08:17:33;;;;;;;6.60;1.98;;;;;;;;;;4948218;28;20046;-87
2022/06/20 08:20:27;;;;;;;4.85;2.13;;;;;;;16.39;66.56;68595.66;4975075;28;20058;-86
2022/06/20 08:23:16;;;;;;;5.80;1.95;;;;;;;16.52;68.31;68609.34;4980682;28;20038;-86
2022/06/20 08:25:50;;;;;;;5.38;1.70;;;;;;;16.67;65.00;68631.81;4948107;28;20042;-87
2022/06/20 08:28:19;;;;;;;6.72;2.13;;;;;;;;;;4973409;28;20063;-87
2022/06/20 08:31:01;;;;;;;8.75;2.78;;;;;;;16.70;64.95;68629.84;4983560;28;20386;-87
2022/06/20 08:33:37;;;;;;;5.65;2.28;;;;;;;17.02;64.35;68665.81;4992260;28;20042;-87
2022/06/20 08:36:13;;;;;;;5.05;2.28;;;;;;;16.85;64.75;68636.22;4993225;28;20041;-87
2022/06/20 08:39:17;;;;;;;4.88;2.08;;;;;;;16.83;66.30;68644.13;4992496;28;20062;-87
2022/06/20 08:42:04;;;;;;;6.65;3.08;;;;;;;16.74;63.90;68634.41;5008321;28;20094;-88
2022/06/20 08:45:01;;;;;;;6.22;2.10;;;;;;;16.85;63.98;68646.41;5008005;28;20068;-87
2022/06/20 08:47:45;;;;;;;7.82;2.22;;;;;;;16.95;62.28;68651.88;5005740;28;20041;-86
2022/06/20 08:50:42;;;;;;;7.75;2.70;;;;;;;17.00;60.86;68662.94;4993218;28;20102;-87
2022/06/20 08:53:43;;;;;;;5.18;2.10;;;;;;;17.26;62.84;68687.25;4972164;28;20445;-87
2022/06/20 08:56:22;;;;;;;7.13;2.30;;;;;;;17.36;61.25;68698.63;4986223;28;20045;-89
2022/06/20 08:59:06;;;;;;;5.53;2.63;;;;;;;;;;5028918;28;20044;-87
2022/06/20 09:01:44;;;;;;;7.95;2.85;;;;;;;17.57;59.61;68722.03;5029384;28;20041;-87
2022/06/20 09:05:07;;;;;;;5.57;2.70;;;;;;;17.67;59.64;68732.31;5014012;28;20168;-88
2022/06/20 09:08:02;;;;;;;5.93;2.65;;;;;;;17.62;59.20;68726.59;4948982;28;20434;-89
2022/06/20 09:10:45;;;;;;;6.88;2.65;;;;;;;17.76;59.39;68743.16;4949731;28;20043;-87
2022/06/20 09:13:29;;;;;;;5.38;2.28;;;;;;;17.80;60.68;68744.47;5006318;28;20041;-87
2022/06/20 09:16:09;;;;;;;6.70;2.45;;;;;;;17.88;59.28;68761.69;4996474;28;20041;-88
2022/06/20 09:18:53;;;;;;;6.60;2.55;;;;;;;;;;5011484;28;20049;-89
2022/06/20 09:21:46;;;;;;;8.20;2.60;;;;;;;17.87;58.94;68754.59;5030109;28;20209;-88
2022/06/20 09:24:30;;;;;;;8.45;2.85;;;;;;;;;;5003685;28;20065;-87
2022/06/20 09:27:15;;;;;;;6.65;2.78;;;;;;;17.65;57.55;68730.59;5019791;28;20072;-88
2022/06/20 09:29:46;;;;;;;7.32;2.50;;;;;;;;;;5022119;28;20493;-87
2022/06/20 09:32:33;;;;;;;6.95;2.35;;;;;;;17.80;58.12;68753.09;5022302;28;20045;-88
2022/06/20 09:35:44;;;;;;;8.23;2.70;;;;;;;17.70;59.49;68743.81;5005621;28;20049;-87
2022/06/20 09:38:12;;;;;;;6.63;2.95;;;;;;;;;;5026527;28;20065;-88
2022/06/20 09:40:59;;;;;;;7.55;2.80;;;;;;;18.15;58.49;68791.91;5009926;28;20037;-87
2022/06/20 09:43:41;;;;;;;6.18;2.70;;;;;;;18.30;57.77;68811.19;5010154;28;20073;-87
2022/06/20 09:46:30;;;;;;;8.05;2.78;;;;;;;;;;5027976;28;20081;-88
2022/06/20 09:49:01;;;;;;;8.13;3.10;;;;;;;18.20;58.33;68792.25;4992843;28;20065;-88
2022/06/20 09:51:33;;;;;;;7.13;2.85;;;;;;;;;;5041138;28;20041;-89
2022/06/20 09:54:10;;;;;;;8.98;2.92;;;;;;;;;;5044709;28;20037;-89
2022/06/20 09:56:48;;;;;;;7.70;3.05;;;;;;;18.09;58.74;68785.06;5028695;28;20049;-88
2022/06/20 09:59:23;;;;;;;7.53;2.88;;;;;;;18.04;58.77;68779.94;5028022;28;20037;-87
2022/06/20 10:02:03;;;;;;;12.18;3.53;;;;;;;18.14;59.52;68790.78;5025329;28;20514;-88
2022/06/20 10:04:41;;;;;;;8.23;2.90;;;;;;;18.12;60.03;68788.50;5042956;28;20706;-87
2022/06/20 10:07:20;;;;;;;10.38;2.80;;;;;;;18.15;59.44;68791.91;5027771;28;20116;-87
2022/06/20 10:09:58;;;;;;;9.85;3.22;;;;;;;18.12;58.87;68783.09;5008552;28;20041;-87
2022/06/20 10:12:35;;;;;;;6.32;3.38;;;;;;;18.29;58.89;68806.75;5009152;28;20065;-88
2022/06/20 10:15:11;;;;;;;7.85;3.25;;;;;;;18.21;60.03;68793.41;5026703;28;20125;-88
2022/06/20 10:18:01;;;;;;;8.90;3.42;;;;;;;18.12;60.19;68788.50;5026319;28;20798;-88
2022/06/20 10:20:36;;;;;;;8.30;3.50;;;;;;;;;;5025618;28;20405;-87
2022/06/20 10:23:17;;;;;;;9.88;3.90;;;;;;;18.03;62.41;68778.78;5026375;28;20041;-87
2022/06/20 10:25:52;;;;;;;6.75;3.55;;;;;;;17.96;62.58;68764.84;4960020;28;20046;-88
2022/06/20 10:28:24;;;;;;;7.97;3.13;;;;;;;18.12;63.08;68782.53;4969970;28;20038;-87
2022/06/20 10:30:55;;;;;;;8.30;3.03;;;;;;;;;;4953293;28;20049;-87
2022/06/20 10:33:33;;;;;;;8.52;2.90;;;;;;;18.38;60.62;68811.66;4984413;28;20410;-87
2022/06/20 10:36:10;;;;;;;7.28;2.38;;;;;;;18.25;55.96;68797.94;4953048;28;20042;-88
2022/06/20 10:38:41;;;;;;;6.82;2.95;;;;;;;18.64;57.26;68838.66;4983809;28;20545;-87
2022/06/20 10:41:16;;;;;;;6.28;2.38;;;;;;;18.89;57.40;68868.78;4967049;28;20038;-88
2022/06/20 10:43:44;;;;;;;8.07;2.45;;;;;;;;;;4950257;28;20050;-89
2022/06/20 10:46:35;;;;;;;6.10;2.30;;;;;;;19.16;54.56;68899.03;4977355;28;20046;-87
2022/06/20 10:49:33;;;;;;;4.95;2.10;;;;;;;19.15;53.82;68898.47;4968843;28;20046;-87
2022/06/20 10:52:31;;;;;;;6.28;2.10;;;;;;;19.09;54.42;68891.03;4964941;28;20041;-89
2022/06/20 10:55:16;;;;;;;7.50;2.53;;;;;;;;;;5006922;28;20049;-88
2022/06/20 10:57:42;;;;;;;7.82;2.10;;;;;;;19.09;52.44;68891.03;4998143;28;20046;-87
2022/06/20 11:00:14;;;;;;;5.57;2.00;;;;;;;19.24;50.80;68907.59;5005761;28;20049;-88
2022/06/20 11:02:57;;;;;;;4.57;1.80;;;;;;;;;;5025917;28;20527;-88
2022/06/20 11:05:48;;;;;;;6.03;2.10;;;;;;;19.56;49.43;68944.19;4996319;28;20557;-88
2022/06/20 11:08:24;;;;;;;6.53;1.67;;;;;;;19.57;47.42;68944.75;4998462;28;20110;-87
2022/06/20 11:11:11;;;;;;;6.15;1.77;;;;;;;19.75;47.45;68964.78;5012375;28;20062;-89
2022/06/20 11:14:15;;;;;;;4.63;1.40;;;;;;;19.65;46.38;68950.59;5028238;28;20044;-88
2022/06/20 11:16:53;;;;;;;4.03;1.77;;;;;;;19.73;46.68;68962.47;4981340;28;20095;-87
2022/06/20 11:19:36;;;;;;;6.60;1.83;;;;;;;19.66;46.92;68954.50;5011830;28;20485;-87
2022/06/20 11:22:35;;;;;;;4.72;1.90;;;;;;;19.50;48.44;68931.34;4999087;28;20285;-88
2022/06/20 11:25:00;;;;;;;;;;;;;;;19.47;48.01;68933.88;5030338;22;20411;-84
2022/06/20 11:27:53;;;;;;;4.67;1.70;;;;;;;19.47;48.54;68931.19;5013083;28;19913;-84
2022/06/20 11:30:25;;;;;;;5.18;1.80;;;;;;;;;;5008093;28;20277;-85
2022/06/20 11:34:00;;;;;;;5.70;1.70;;;;;;;;;;5008857;28;20448;-82
2022/06/20 11:36:14;;;;;;;5.22;1.90;;;;;;;19.91;48.44;68979.78;4942759;28;20530;-83
2022/06/20 11:38:45;;;;;;;6.30;1.80;;;;;;;;;;4975926;28;20045;-83
2022/06/20 11:41:22;;;;;;;6.85;2.10;;;;;;;;;;4992513;28;20042;-83
2022/06/20 11:44:06;;;;;;;3.40;1.63;;;;;;;19.55;47.47;68943.03;4994096;28;20042;-84
2022/06/20 11:46:50;;;;;;;6.82;1.80;;;;;;;19.49;49.38;68936.19;4992749;28;20191;-85
2022/06/20 11:49:25;;;;;;;3.72;1.90;;;;;;;;;;4988202;28;20062;-83
2022/06/20 11:51:50;;;;;;;6.90;1.83;;;;;;;19.60;49.29;68948.19;4972928;28;20052;-83
2022/06/20 11:54:42;;;;;;;7.25;2.08;;;;;;;;;;4992892;28;20034;-84
2022/06/20 11:57:07;;;;;;;4.20;1.92;;;;;;;;;;4947908;28;20047;-82
2022/06/20 11:59:58;;;;;;;6.20;1.90;;;;;;;19.38;49.73;68929.00;4991510;28;20704;-82
2022/06/20 12:02:41;;;;;;;4.97;1.75;;;;;;;19.18;50.21;68901.31;4988198;28;20057;-83
2022/06/20 12:05:06;;;;;;;6.47;2.30;;;;;;;19.16;50.72;68899.03;4973199;28;20553;-85
2022/06/20 12:07:40;;;;;;;4.80;1.70;;;;;;;19.20;51.73;68903.03;4988629;28;20049;-83
2022/06/20 12:10:13;;;;;;;5.20;1.73;;;;;;;19.14;49.66;68896.75;4984652;28;20034;-84
2022/06/20 12:12:44;;;;;;;7.45;1.67;;;;;;;19.08;51.02;68895.31;4975837;28;20093;-83
2022/06/20 12:15:47;;;;;;;4.43;1.90;;;;;;;18.99;50.60;68876.91;4990949;28;20111;-84
2022/06/20 12:24:38;;;;;;;6.60;1.98;;;;;;;;;;4982020;28;20026;-84
2022/06/20 12:27:09;;;;;;;4.47;1.38;;;;;;;20.54;46.60;69053.38;4992770;28;20465;-83
2022/06/20 12:29:36;;;;;;;5.60;1.75;;;;;;;20.46;45.87;69044.78;4986228;28;20038;-84
2022/06/20 12:32:10;;;;;;;5.07;1.45;;;;;;;20.52;47.40;69051.09;4993823;28;20100;-83
2022/06/20 12:34:42;;;;;;;5.22;1.40;;;;;;;20.64;45.20;69062.13;4976668;28;20498;-82
2022/06/20 12:37:41;;;;;;;5.53;1.58;;;;;;;20.13;45.98;69007.06;4990041;28;20043;-83
2022/06/20 12:40:16;;;;;;;4.82;1.90;;;;;;;;;;4968596;28;20648;-84
2022/06/20 12:42:41;;;;;;;4.40;1.38;;;;;;;20.35;45.72;69032.22;4974137;28;20046;-82
2022/06/20 12:45:28;;;;;;;5.47;1.48;;;;;;;20.44;46.96;69042.50;4976261;28;20050;-84
2022/06/20 12:48:12;;;;;;;5.38;1.65;;;;;;;20.41;46.59;69039.06;4989108;28;20104;-81
2022/06/20 12:51:05;;;;;;;4.25;1.48;;;;;;;20.34;47.47;69027.78;4988473;28;20046;-83